Aviation Digital Data Service (ADDS)

Output produced by METARs form (0044 UTC 24 May 2022)
found at http://www.aviationweather.gov/metar/data/
 
OIAA 240000Z 32012KT 2000 DU NSC 27/06 Q1003
TAF OIAA 232300Z 2400/2506 28014KT 1000 DU HZ NSC 
     BECMG 2404/2406 3000 DU 
     TEMPO 2406/2415 34018G28KT 1500 SA 
     BECMG 2418/2420 34010KT 7000
       
OIAW 240000Z 29004KT 0300 R30/P2000 DU NSC 26/07 Q1002
TAF OIAW 232300Z 2400/2506 28008KT 0500 DU NSC 
     BECMG 2404/2406 3000 DU HZ 
     TEMPO 2406/2415 27018KT 
     PROB40 
     TEMPO 2409/2415 1500 SA 
     BECMG 2417/2418 7000
       
OITL 232350Z 00000KT 8000 FEW030 10/06 Q1006
TAF OITL 232300Z 2400/2409 24012KT 4000 DU FEW040 
     TEMPO 2400/2404 34016KT 2000 DU 
     PROB40 
     TEMPO 2400/2405 0500 DU 
     TEMPO 2406/2409 09018G26KT 2000 SA/DU TS FEW035CB SCT040 BKN100
       
OIKB 240000Z 01006KT 4000 HZ NSC 28/14 Q0998 A2948
TAF OIKB 232300Z 2400/2506 04008KT 4000 HZ NSC 
     PROB40 2400/2406 2500 DU/HZ 
     BECMG 2407/2408 20010KT 
     TEMPO 2408/2415 26018KT 2500 SA/DU 
     BECMG 2417/2419 06006KT
       
OIBL 240000Z 24004KT 4000 HZ NSC 32/12 Q0997
OIMB 240000Z 10004KT CAVOK 12/M13 Q1009 A2981
OIMN 240000Z VRB02KT 9999 FEW015 BKN020 18/03 Q1003
OIBB 240000Z 31019KT 0500 DU VV/// 28/15 Q1001 A2958
TAF OIBB 232300Z 2400/2409 29010KT 0800 DU NSC 
     TEMPO 2400/2405 29016G28KT 0500 DU 
     TEMPO 2403/2405 32020G30KT 2000 DU
       
OIZC 240000Z 07004KT 3000 DU NSC 28/21 Q0997
OIKQ 240000Z 00000KT 8000 NSC 27/23 Q0997
OIFM 240030Z 07004KT CAVOK 18/M06 Q1010 A2982
TAF OIFM 232300Z 2400/2506 26008KT 7000 FEW040 
     TEMPO 2400/2405 4000 DU/HZ 
     BECMG 2405/2406 20012KT 
     TEMPO 2409/2416 27016G26KT 4000 SA/DU FEW035TCU SCT040 BKN100 
     PROB40 2410/2414 1500 SA 
     BECMG 2418/2820 26008KT
       
OISF 240000Z 32008KT 7000 NSC 22/M02 Q1010 A2984
OIAH 240000Z 00000KT 2000 DU NSC 27/04 Q1007
OIIK 240000Z 28002KT CAVOK 14/M04 Q1006
OING 240000Z 24012KT CAVOK 21/14 Q0998
TAF OING 232300Z 2400/2409 24010KT 8000 NSC 
     PROB30 2400/2404 5000 HZ 
     TEMPO 2404/2412 24018G26KT
       
OIHH 240000Z 33010KT 6000 NSC 11/M06 Q1010 A2983
OICI 240000Z 31004KT 0100 DU VV/// 15/03 Q1012 A2989
TAF OICI 232300Z 2400/2506 22008KT 0150 DU FEW040 
     BECMG 2405/2407 0500 DU 
     BECMG 2408/2410 3000 DU 
     TEMPO 2409/2416 28018KT 
     BECMG 2417/2419 6000
       
OIZI 240000Z 02006KT CAVOK 26/M10 Q1004
OIZJ 240000Z 34004KT 8000 NSC 30/21 Q0997
OINE 240000Z 07004KT CAVOK 19/13 Q0996
OIKK 240000Z 10006KT CAVOK 17/M09 Q1012 A2991
TAF OIKK 232300Z 2400/2506 34008KT 8000 NSC 
     BECMG 2407/2408 26010KT 
     TEMPO 2408/2415 28016G26KT 
     PROB40 
     TEMPO 2409/2414 3000 SA 
     BECMG 2417/2418 30008KT
       
OIBQ 240000Z 33021KT 1500 DU NSC 27/18 Q1002
OICK 232351Z 27010KT 1000 DU NSC 18/M03 Q1009
OIBK 240000Z 30006KT 7000 NSC 29/20 Q0997
TAF OIBK 232300Z 2400/2506 28008KT 7000 NSC 
     TEMPO 2406/2415 22018KT 
     PROB30 
     TEMPO 2409/2414 3000 SA
       
OISL 240000Z 00000KT 8000 NSC 25/05 Q1004 A2966
OIAM 240000Z 32010KT 0200 DU VV/// 26/02 Q1003
OIMM 240030Z 19004KT CAVOK 17/06 Q1005 A2969
TAF OIMM 232300Z 2400/2506 30008KT 7000 NSC 
     TEMPO 2409/2412 25015G25KT 4000 DU FEW035CB SCT040 BKN100 
     TEMPO 2412/2416 02015G25KT 4000 DU FEW035CB SCT040 BKN100 
     BECMG 2504/2506 12012KT
       
OIII 240000Z 28014KT 6000 FEW040 25/M09 Q1004 A2966 TEMPO 5000 DU
TAF OIII 232300Z 2400/2506 27012KT 4000 DU FEW035 
     BECMG 2401/2402 2000 DU 
     TEMPO 2402/2406 27022KT 1200 DU 
     BECMG 2406/2407 4000 DU 
     TEMPO 2407/2412 27015G25KT 3000 DU/SA 
     BECMG 2417/2418 33010KT 6000 
     TEMPO 2420/2424 33020KT 
     BECMG 2504/2506 27012KT
       
OINN 240000Z 26012KT 9999 FEW020CB SCT026 20/15 Q1002
OITP 240000Z 35002KT 9999 FEW030CB SCT035 OVC080 14/12 Q1003
OIIP 240000Z 30017KT 6000 NSC 19/M10 Q1005 A2969
TAF OIIP 232300Z 2400/2409 13014KT 3000 DU FEW040 
     TEMPO 2400/2404 31016G26KT 1500 DU/SA 
     BECMG 2403/2405 31018G28KT 2000 DU/SA
       
OINR 240000Z 33020KT 9999 FEW025 20/15 Q1002
OIGG 240000Z 12004KT 9999 SCT025 18/16 Q1003
TAF OIGG 232300Z 2400/2409 27006KT 6000 SCT025 BKN100 
     TEMPO 2400/2404 2000 BR/HZ BKN010 
     PROB40 2400/2404 0500 HZ/DU FG OVC010
       
OITM 240000Z 00000KT 0500 DU VV010 14/06 Q1007
OICS 240000Z 00000KT 1500 DU NSC 15/02 Q1010 A2985
OIMC 232350Z AUTO 15002KT //// // ////// 19/00 Q0999
TAF OINZ 232300Z 2400/2409 22008KT 8000 FEW025 
     BECMG 2400/2402 22016G24KT 
     PROB30 2400/2404 4000 HZ/DU 
     TEMPO 2403/2405 FEW025CB SCT030
       
OIIS 232300Z 33004KT CAVOK 26/M08 Q1004
OICC 240000Z 27008KT 0800 DU NSC 15/03 Q1011 A2986
TAF OICC 232300Z 2400/2409 28008KT 0700 DU FEW030 
     TEMPO 2400/2403 31014KT 0200 DU 
     BECMG 2403/2405 3000 DU 
     TEMPO 2404/2409 24016G26KT 1200 DU
       
OIAI 232000Z 26008KT 0100 DU NSC 29/06 Q1002
OIFS 240000Z 19006KT CAVOK 17/M05 Q1013
OISS 240000Z 36006KT 8000 NSC 23/M05 Q1012 A2989
TAF OISS 232300Z 2400/2506 28008KT 7000 NSC 
     PROB40 2400/2405 3000 DU HZ 
     BECMG 2405/2406 20010KT 
     TEMPO 2408/2415 26016G28KT 3000 SA 
     PROB40 
     TEMPO 2409/2414 1500 SA/DU 
     BECMG 2417/2419 28006KT
       
OITT 240030Z 29006KT 3000 DU FEW035 SCT180 13/04 Q1008 A2977
TAF OITT 232300Z 2400/2506 23014KT 2000 DU SFEW040 SCT080 
     PROB40 2400/2402 1500 DU 
     BECMG 2402/2404 30008KT 6000 
     BECMG 2406/2408 24014KT 3000 DU/SA FEW035CB SCT040 BKN090 
     TEMPO 2408/2413 24020G32KT 1500 TSRA SA SCT030CB SCT035 BKN090 
     BECMG 2413/2414 33008KT 5000 DU 
     TEMPO 2414/2420 33015G25KT 3000 TSRA/SA SCT030CB SCT035 BKN090
       
OITR 240000Z 23006KT 8000 NSC 12/03 Q1006
TAF OITR 232300Z 2400/2506 25006KT 2000 DU NSC 
     TEMPO 2400/2406 1000 DU 
     BECMG 2406/2408 24016KT FEW030CB SCT035 BKN090 
     TEMPO 2408/2415 24016G26KT 2000 TSRA SA SCT030CB SCT035 BKN090 
     BECMG 2417/2418 30008KT 6000 FEW030 SCT100
       
OISY 240000Z 00000KT 6000 NSC 15/01 Q1016
OIYY 240000Z 12006KT 8000 NSC 25/M06 Q1008
TAF OIYY 232300Z 2400/2409 14008KT 8000 NSC 
     TEMPO 2400/2406 25012KT 4000 DU 
     TEMPO 2406/2412 25018G26KT 2500 SA/DU
       
OIZB 240000Z 30006KT CAVOK 21/M05 Q1003
OIZH 240000Z 13006KT CAVOK 18/M12 Q1009 A2982
TAF OIZH 232300Z 2400/2506 03008KT 8000 NSC 
     BECMG 2405/2407 20010KT 
     TEMPO 2408/2415 26018KT 
     BECMG 2417/2419 02006KT